M/V Manukai — WRGD — position and weather

sailwx.info

Track history (hours):
 
Tides and Currents Weather Stations Pressure Air Temp Water Temp Dewpoint Dewpoint Depression Visibility Wind Speed Wind Dir Waves Ship Positions

M/V Manukai

Owner: Matson Navigation Company, Inc., Oakland, CA. More information available from US FCC via Universal Licensing System and Coast Guard Vessel Documentation Center.

Last reported at 2017-Jan-19 12:00 UTC. Time now 2017-Jan-19 21:17 UTC.
Position N 33°00' E 127°00'.

Type: Ship (hazmat cat A). MMSI: 369296000.

Wind from 270 at 25 knots

Barometer 1021.8 mb
Air temperature 6.0 ° C
Visibility: greater than 5.4 NM
Dewpoint 3.6 ° C
Water temperature 14.0 ° C

Date/timePositionNaut miles runAvg speedWind from/ knotsBaromVisibWave heightAir tempDewpointWater temp
2017-Jan-19 12:00N 33°00' E 127°00'26020.8 270 / 251021.8 5.4 6.0 3.614.0
2017-Jan-18 23:27N 31°06' E 122°24'1314.1
2017-Jan-18 22:34N 31°11' E 122°10'1514.8
2017-Jan-18 21:34N 31°16' E 121°54'1313.4
2017-Jan-18 20:33N 31°21' E 121°39'4 3.9
2017-Jan-18 19:28N 31°23' E 121°35'0 0.0
2017-Jan-18 18:31N 31°23' E 121°35'0 0.0
2017-Jan-18 17:31N 31°23' E 121°35'0 0.0
2017-Jan-18 16:28N 31°23' E 121°35'0 0.0
2017-Jan-18 15:31N 31°23' E 121°35'0 0.0
2017-Jan-18 14:31N 31°23' E 121°35'0 0.0
2017-Jan-18 13:31N 31°23' E 121°35'0 0.0
2017-Jan-18 12:31N 31°23' E 121°35'0 0.0
2017-Jan-18 11:31N 31°23' E 121°35'0 0.0
2017-Jan-18 10:22N 31°23' E 121°35'0 0.1
2017-Jan-18 09:31N 31°23' E 121°35'0 0.1
2017-Jan-18 08:31N 31°23' E 121°35'0 0.0
2017-Jan-18 07:28N 31°23' E 121°35'0 0.0
2017-Jan-18 06:31N 31°23' E 121°35'0 0.0
2017-Jan-18 05:31N 31°23' E 121°35'0 0.0
2017-Jan-18 04:31N 31°23' E 121°35'0 0.1
2017-Jan-17 22:22N 31°23' E 121°34'14 7.9
2017-Jan-17 20:33N 31°17' E 121°50'  
2017-Jan-15 11:33N 24°18' E 118°14'1413.9
2017-Jan-15 10:33N 24°27' E 118°03'4 3.9
2017-Jan-15 09:33N 24°31' E 118°05'0 0.0
2017-Jan-15 08:33N 24°31' E 118°05'0 0.0
2017-Jan-15 07:34N 24°31' E 118°05'0 0.0
2017-Jan-15 06:34N 24°31' E 118°05'0 0.1
2017-Jan-15 05:33N 24°31' E 118°05'0 0.1
2017-Jan-15 04:28N 24°31' E 118°05'0 0.0
2017-Jan-15 03:33N 24°31' E 118°05'7 7.0
2017-Jan-15 02:33N 24°24' E 118°06'16418.0
2017-Jan-14 17:26N 22°14' E 119°56'19411.1
2017-Jan-14 00:00N 20°54' E 123°06'26021.6 050 / 191014.8 5.4 21.019.426.7
2017-Jan-13 12:00N 19°36' E 127°30'52021.7 050 / 51010.510.8 23.021.526.0
2017-Jan-12 12:00N 16°42' E 136°06'   070 / 101013.410.8 24.022.528.0
Track history (hours):
 
Tides and Currents Weather Stations Pressure Air Temp Water Temp Dewpoint Dewpoint Depression Visibility Wind Speed Wind Dir Waves Ship Positions

M/V Manukai

Owner: Matson Navigation Company, Inc., Oakland, CA. More information available from US FCC via Universal Licensing System and Coast Guard Vessel Documentation Center.

Last reported at 2017-Jan-19 12:00 UTC. Time now 2017-Jan-19 21:17 UTC.
Position N 33°00' E 127°00'.

Type: Ship (hazmat cat A). MMSI: 369296000.

Wind from 270 at 25 knots

Barometer 1021.8 mb
Air temperature 6.0 ° C
Visibility: greater than 5.4 NM
Dewpoint 3.6 ° C
Water temperature 14.0 ° C

Date/timePositionNaut miles runAvg speedWind from/ knotsBaromVisibWave heightAir tempDewpointWater temp
2017-Jan-19 12:00N 33°00' E 127°00'26020.8 270 / 251021.8 5.4 6.0 3.614.0
2017-Jan-18 23:27N 31°06' E 122°24'1314.1
2017-Jan-18 22:34N 31°11' E 122°10'1514.8
2017-Jan-18 21:34N 31°16' E 121°54'1313.4
2017-Jan-18 20:33N 31°21' E 121°39'4 3.9
2017-Jan-18 19:28N 31°23' E 121°35'0 0.0
2017-Jan-18 18:31N 31°23' E 121°35'0 0.0
2017-Jan-18 17:31N 31°23' E 121°35'0 0.0
2017-Jan-18 16:28N 31°23' E 121°35'0 0.0
2017-Jan-18 15:31N 31°23' E 121°35'0 0.0
2017-Jan-18 14:31N 31°23' E 121°35'0 0.0
2017-Jan-18 13:31N 31°23' E 121°35'0 0.0
2017-Jan-18 12:31N 31°23' E 121°35'0 0.0
2017-Jan-18 11:31N 31°23' E 121°35'0 0.0
2017-Jan-18 10:22N 31°23' E 121°35'0 0.1
2017-Jan-18 09:31N 31°23' E 121°35'0 0.1
2017-Jan-18 08:31N 31°23' E 121°35'0 0.0
2017-Jan-18 07:28N 31°23' E 121°35'0 0.0
2017-Jan-18 06:31N 31°23' E 121°35'0 0.0
2017-Jan-18 05:31N 31°23' E 121°35'0 0.0
2017-Jan-18 04:31N 31°23' E 121°35'0 0.1
2017-Jan-17 22:22N 31°23' E 121°34'14 7.9
2017-Jan-17 20:33N 31°17' E 121°50'  
2017-Jan-15 11:33N 24°18' E 118°14'1413.9
2017-Jan-15 10:33N 24°27' E 118°03'4 3.9
2017-Jan-15 09:33N 24°31' E 118°05'0 0.0
2017-Jan-15 08:33N 24°31' E 118°05'0 0.0
2017-Jan-15 07:34N 24°31' E 118°05'0 0.0
2017-Jan-15 06:34N 24°31' E 118°05'0 0.1
2017-Jan-15 05:33N 24°31' E 118°05'0 0.1
2017-Jan-15 04:28N 24°31' E 118°05'0 0.0
2017-Jan-15 03:33N 24°31' E 118°05'7 7.0
2017-Jan-15 02:33N 24°24' E 118°06'16418.0
2017-Jan-14 17:26N 22°14' E 119°56'19411.1
2017-Jan-14 00:00N 20°54' E 123°06'26021.6 050 / 191014.8 5.4 21.019.426.7
2017-Jan-13 12:00N 19°36' E 127°30'52021.7 050 / 51010.510.8 23.021.526.0
2017-Jan-12 12:00N 16°42' E 136°06'   070 / 101013.410.8 24.022.528.0

Dump ship's entire track history